Time;durP1;ratioP1;P1;durP2;ratioP2;P2;SDS_P1;SDS_P2;PMS_P1;PMS_P2;Temp;Humidity;BMP_temperature;BMP_pressure;BME280_temperature;BME280_humidity;BME280_pressure;Samples;Min_cycle;Max_cycle;Signal;HPM_P1;HPM_P2
2023/03/30 00:04:17;;;;;;;;;;;;;;;11.68;88.84;100751.13;20490849;28;19969;-60
2023/03/30 00:14:41;;;;;;;;;;;;;;;11.72;88.46;100748.34;20499137;28;20017;-60
2023/03/30 00:25:02;;;;;;;;;;;;;;;11.72;89.18;100719.00;20508719;28;19985;-59
2023/03/30 00:35:25;;;;;;;;;;;;;;;11.73;89.36;100699.94;20501528;28;19981;-60
2023/03/30 00:45:46;;;;;;;;;;;;;;;11.74;90.02;100688.66;20489417;28;19922;-60
2023/03/30 00:56:10;;;;;;;;;;;;;;;11.67;89.29;100650.91;20478027;28;19922;-59
2023/03/30 01:06:33;;;;;;;;;;;;;;;11.62;89.56;100632.09;20483980;28;20024;-59
2023/03/30 01:16:54;;;;;;;;;;;;;;;11.61;89.45;100604.50;20498005;28;19934;-59
2023/03/30 01:27:39;;;;;;;;;;;;;;;11.58;89.85;100573.50;20498569;28;20242;-60
2023/03/30 01:38:06;;;;;;;;;;;;;;;11.63;89.96;100553.44;20504473;28;20294;-60
2023/03/30 01:48:44;;;;;;;;;;;;;;;11.68;89.31;100543.78;20484379;28;19973;-59
2023/03/30 01:59:05;;;;;;;;;;;;;;;11.66;89.46;100517.06;20501321;28;20034;-59
2023/03/30 02:09:28;;;;;;;;;;;;;;;11.73;88.94;100501.22;20494402;28;19994;-59
2023/03/30 02:19:50;;;;;;;;;;;;;;;11.81;88.71;100483.59;20491249;28;20444;-59
2023/03/30 02:30:11;;;;;;;;;;;;;;;11.87;87.92;100469.53;20486112;28;19922;-60
2023/03/30 02:40:43;;;;;;;;;;;;;;;11.92;87.90;100480.56;20482575;28;19976;-60
2023/03/30 02:51:05;;;;;;;;;;;;;;;11.99;87.26;100469.03;20490604;28;19930;-59
2023/03/30 03:01:36;;;;;;;;;;;;;;;12.04;86.11;100467.09;20525567;28;19922;-61
2023/03/30 03:11:57;;;;;;;;;;;;;;;12.11;85.96;100468.50;20489469;28;19926;-60
2023/03/30 03:22:19;;;;;;;;;;;;;;;12.29;84.14;100440.97;20509049;28;19969;-59
2023/03/30 03:32:40;;;;;;;;;;;;;;;12.37;84.59;100426.75;20515362;28;19973;-61
2023/03/30 03:43:02;;;;;;;;;;;;;;;12.46;83.83;100421.16;20500766;28;19949;-59
2023/03/30 03:53:24;;;;;;;;;;;;;;;12.47;84.38;100406.44;20504379;28;20274;-59
2023/03/30 04:03:46;;;;;;;;;;;;;;;12.52;83.61;100394.94;20511424;28;19926;-59
2023/03/30 04:14:07;;;;;;;;;;;;;;;12.53;84.27;100393.16;20519102;28;20009;-60
2023/03/30 04:24:28;;;;;;;;;;;;;;;12.64;82.28;100383.13;20480052;28;19970;-59
2023/03/30 04:34:53;;;;;;;;;;;;;;;12.71;81.96;100385.38;20502201;28;19976;-59
2023/03/30 04:45:17;;;;;;;;;;;;;;;12.83;80.88;100379.63;20514563;28;20076;-59
2023/03/30 04:55:38;;;;;;;;;;;;;;;12.91;80.42;100384.47;20498896;28;20380;-60
2023/03/30 05:06:00;;;;;;;;;;;;;;;13.07;79.56;100380.28;20491362;28;19942;-59
2023/03/30 05:16:21;;;;;;;;;;;;;;;13.04;80.33;100373.44;20502524;28;19980;-60
2023/03/30 05:26:43;;;;;;;;;;;;;;;13.06;80.32;100357.78;20502127;28;19929;-60
2023/03/30 05:37:04;;;;;;;;;;;;;;;13.07;80.03;100351.69;20493756;28;19930;-60
2023/03/30 05:47:27;;;;;;;;;;;;;;;13.13;79.11;100345.38;20497145;28;19930;-59
2023/03/30 05:57:49;;;;;;;;;;;;;;;13.08;79.82;100353.38;20496867;28;20307;-59
2023/03/30 06:08:10;;;;;;;;;;;;;;;13.23;79.07;100359.59;20472124;28;19930;-58
2023/03/30 06:18:32;;;;;;;;;;;;;;;13.16;80.18;100356.44;20504530;28;19926;-60
2023/03/30 06:28:53;;;;;;;;;;;;;;;13.16;80.80;100350.41;20499738;28;19926;-59
2023/03/30 06:39:16;;;;;;;;;;;;;;;13.36;79.44;100352.88;20503192;28;20053;-58
2023/03/30 06:49:37;;;;;;;;;;;;;;;13.45;79.72;100347.22;20514829;28;19973;-59
2023/03/30 06:59:59;;;;;;;;;;;;;;;13.49;79.76;100349.59;20494589;28;19925;-59
2023/03/30 07:10:20;;;;;;;;;;;;;;;13.69;79.14;100346.00;20506642;28;19929;-59
2023/03/30 07:20:43;;;;;;;;;;;;;;;13.86;78.75;100343.41;20508678;28;20460;-59
2023/03/30 07:31:06;;;;;;;;;;;;;;;14.00;78.41;100338.31;20494888;28;19982;-59
2023/03/30 07:41:28;;;;;;;;;;;;;;;14.27;77.88;100329.09;20507509;28;20001;-60
2023/03/30 07:51:50;;;;;;;;;;;;;;;14.31;78.62;100346.22;20512242;28;20436;-59
2023/03/30 08:02:13;;;;;;;;;;;;;;;14.44;77.97;100352.47;20495319;28;19923;-60
2023/03/30 08:12:35;;;;;;;;;;;;;;;14.59;78.57;100377.69;20501792;28;19922;-59
2023/03/30 08:22:56;;;;;;;;;;;;;;;14.45;79.03;100380.16;20481354;28;19922;-60
2023/03/30 08:33:18;;;;;;;;;;;;;;;14.55;79.14;100370.97;20500437;28;19930;-59
2023/03/30 08:43:52;;;;;;;;;;;;;;;14.88;77.85;100361.31;20500687;28;20382;-59
2023/03/30 08:54:17;;;;;;;;;;;;;;;15.32;73.97;100378.84;20505040;28;19933;-59
2023/03/30 09:05:00;;;;;;;;;;;;;;;15.28;74.19;100366.88;20486283;28;20389;-60
2023/03/30 09:15:25;;;;;;;;;;;;;;;14.88;76.72;100384.75;20511467;28;19941;-60
2023/03/30 09:25:49;;;;;;;;;;;;;;;14.60;77.88;100378.50;20500416;28;19933;-59
2023/03/30 09:36:16;;;;;;;;;;;;;;;14.75;76.52;100381.16;20490733;28;19930;-60
2023/03/30 09:46:37;;;;;;;;;;;;;;;14.78;75.93;100380.97;20500747;28;19992;-60
2023/03/30 09:56:59;;;;;;;;;;;;;;;14.52;77.66;100404.97;20493987;28;19931;-60
2023/03/30 10:07:23;;;;;;;;;;;;;;;14.62;77.59;100398.34;20508978;28;20172;-59
2023/03/30 10:17:46;;;;;;;;;;;;;;;14.79;75.82;100416.53;20511262;28;19930;-59
2023/03/30 10:28:16;;;;;;;;;;;;;;;13.49;84.02;100457.94;20496851;28;19977;-60
2023/03/30 10:38:39;;;;;;;;;;;;;;;13.28;86.82;100466.72;20498232;28;19926;-60
2023/03/30 10:49:05;;;;;;;;;;;;;;;13.74;84.38;100448.88;20481867;28;20294;-58
2023/03/30 10:59:38;;;;;;;;;;;;;;;14.30;77.78;100434.81;20508905;28;19928;-60
2023/03/30 11:10:04;;;;;;;;;;;;;;;14.39;76.74;100447.34;20496510;28;19993;-61
2023/03/30 11:20:32;;;;;;;;;;;;;;;14.85;74.71;100437.03;20504761;28;19930;-60
2023/03/30 11:30:57;;;;;;;;;;;;;;;14.85;72.78;100437.03;20506426;28;19981;-59
2023/03/30 11:41:22;;;;;;;;;;;;;;;14.84;71.52;100435.34;20503925;28;19925;-59
2023/03/30 11:52:04;;;;;;;;;;;;;;;14.80;70.73;100467.69;20503474;28;20258;-60
2023/03/30 12:02:28;;;;;;;;;;;;;;;15.07;68.72;100445.34;20495303;28;19923;-60
2023/03/30 12:12:52;;;;;;;;;;;;;;;15.37;65.37;100471.50;20492801;28;20004;-59
2023/03/30 12:23:24;;;;;;;;;;;;;;;15.54;65.38;100463.63;20495275;28;19927;-60
2023/03/30 12:34:04;;;;;;;;;;;;;;;15.72;64.18;100473.03;20505930;28;19989;-61
2023/03/30 12:44:31;;;;;;;;;;;;;;;15.43;67.56;100455.56;20496782;28;20393;-58
2023/03/30 12:54:52;;;;;;;;;;;;;;;15.47;66.46;100448.41;20503229;28;20530;-59
2023/03/30 13:05:33;;;;;;;;;;;;;;;15.53;67.55;100450.69;20499928;28;19923;-60
2023/03/30 13:15:56;;;;;;;;;;;;;;;15.51;64.01;100447.31;20498845;28;19925;-60
2023/03/30 13:26:24;;;;;;;;;;;;;;;15.48;66.99;100442.25;20502362;28;19989;-60
2023/03/30 13:37:24;;;;;;;;;;;;;;;15.57;67.16;100442.59;20490333;28;19922;-59
2023/03/30 13:47:46;;;;;;;;;;;;;;;16.07;63.69;100427.47;20441432;28;20350;-59
2023/03/30 13:58:19;;;;;;;;;;;;;;;16.19;59.25;100441.53;20494872;28;19926;-60
2023/03/30 14:08:43;;;;;;;;;;;;;;;15.98;63.52;100454.09;20474330;28;19926;-60
2023/03/30 14:19:25;;;;;;;;;;;;;;;16.17;63.31;100443.41;20503020;28;19974;-59
2023/03/30 14:29:50;;;;;;;;;;;;;;;16.71;62.59;100440.13;20496590;28;19930;-58
2023/03/30 14:40:15;;;;;;;;;;;;;;;16.60;63.38;100446.94;20505265;28;19990;-59
2023/03/30 14:50:37;;;;;;;;;;;;;;;16.45;60.41;100451.28;20505471;28;19926;-60
2023/03/30 15:00:59;;;;;;;;;;;;;;;16.06;60.94;100443.19;20502545;28;20353;-60
2023/03/30 15:11:22;;;;;;;;;;;;;;;16.15;62.38;100475.78;20511715;28;19925;-59
2023/03/30 15:21:44;;;;;;;;;;;;;;;16.12;62.50;100474.16;20506544;28;20258;-59
2023/03/30 15:32:10;;;;;;;;;;;;;;;15.88;61.74;100455.56;20505521;28;20394;-58
2023/03/30 15:42:32;;;;;;;;;;;;;;;15.71;64.29;100449.63;20499176;28;19966;-59
2023/03/30 15:52:58;;;;;;;;;;;;;;;15.56;65.90;100484.41;20490808;28;20604;-60
2023/03/30 16:03:40;;;;;;;;;;;;;;;15.51;66.53;100469.00;20501036;28;20228;-59
2023/03/30 16:14:03;;;;;;;;;;;;;;;15.39;66.79;100472.28;20481778;28;20623;-59
2023/03/30 16:24:24;;;;;;;;;;;;;;;15.32;66.15;100489.19;20492075;28;19993;-59
2023/03/30 16:34:46;;;;;;;;;;;;;;;15.11;68.16;100465.13;20489318;28;20333;-59
2023/03/30 16:45:07;;;;;;;;;;;;;;;15.00;68.31;100472.69;20491040;28;19930;-59
2023/03/30 16:55:29;;;;;;;;;;;;;;;14.87;68.60;100473.44;20466892;28;19981;-59
2023/03/30 17:05:50;;;;;;;;;;;;;;;14.82;69.63;100473.66;20488464;28;19922;-60
2023/03/30 17:16:12;;;;;;;;;;;;;;;14.77;69.91;100491.31;20500213;28;19994;-59
2023/03/30 17:26:34;;;;;;;;;;;;;;;14.69;70.14;100490.84;20498659;28;19927;-58
2023/03/30 17:36:55;;;;;;;;;;;;;;;14.64;70.13;100490.28;20497518;28;20161;-59
2023/03/30 17:47:17;;;;;;;;;;;;;;;14.50;71.05;100494.50;20472733;28;19929;-60
2023/03/30 17:57:38;;;;;;;;;;;;;;;14.44;70.87;100482.66;20498956;28;19926;-58
2023/03/30 18:08:00;;;;;;;;;;;;;;;14.40;70.98;100507.16;20505574;28;19921;-60
2023/03/30 18:18:23;;;;;;;;;;;;;;;14.35;71.12;100516.09;20477157;28;19948;-58
2023/03/30 18:28:45;;;;;;;;;;;;;;;14.27;72.26;100520.84;20495621;28;20342;-59
2023/03/30 18:39:17;;;;;;;;;;;;;;;14.16;73.50;100534.38;20499305;28;19958;-58
2023/03/30 18:49:38;;;;;;;;;;;;;;;13.96;74.96;100537.94;20497747;28;19929;-59
2023/03/30 19:00:01;;;;;;;;;;;;;;;13.91;75.07;100533.88;20496429;28;19926;-59
2023/03/30 19:10:26;;;;;;;;;;;;;;;13.86;76.08;100547.09;20481993;28;20333;-58
2023/03/30 19:20:49;;;;;;;;;;;;;;;13.61;76.77;100551.78;20521458;28;19980;-58
2023/03/30 19:31:14;;;;;;;;;;;;;;;13.52;78.38;100557.41;20495820;28;19922;-58
2023/03/30 19:41:36;;;;;;;;;;;;;;;13.44;78.34;100553.50;20478173;28;20025;-58
2023/03/30 19:51:57;;;;;;;;;;;;;;;13.48;79.18;100555.03;20484807;28;20004;-59
2023/03/30 20:02:19;;;;;;;;;;;;;;;13.42;79.01;100547.53;20476671;28;19961;-59
2023/03/30 20:12:40;;;;;;;;;;;;;;;13.48;78.59;100539.44;20479847;28;19925;-58
2023/03/30 20:23:02;;;;;;;;;;;;;;;13.43;78.73;100531.84;20488746;28;20407;-59
2023/03/30 20:33:24;;;;;;;;;;;;;;;13.49;77.72;100517.72;20491222;28;20377;-59
2023/03/30 20:43:47;;;;;;;;;;;;;;;13.61;76.65;100504.13;20503098;28;20005;-60
2023/03/30 20:54:17;;;;;;;;;;;;;;;13.60;77.29;100510.25;20498283;28;19985;-59
2023/03/30 21:04:38;;;;;;;;;;;;;;;13.61;75.35;100501.53;20489141;28;19926;-60
2023/03/30 21:15:00;;;;;;;;;;;;;;;13.52;75.68;100501.97;20500108;28;19922;-59
2023/03/30 21:25:21;;;;;;;;;;;;;;;13.45;75.55;100493.63;20496509;28;19926;-59
2023/03/30 21:35:46;;;;;;;;;;;;;;;13.35;76.06;100504.53;20484569;28;19987;-59
2023/03/30 21:46:10;;;;;;;;;;;;;;;13.21;76.28;100488.72;20499002;28;20058;-59
2023/03/30 21:56:31;;;;;;;;;;;;;;;13.10;75.76;100484.88;20488056;28;19957;-60
2023/03/30 22:06:54;;;;;;;;;;;;;;;13.07;75.95;100474.59;20488671;28;20286;-60
2023/03/30 22:17:17;;;;;;;;;;;;;;;13.01;76.73;100463.63;20489068;28;19930;-60
2023/03/30 22:27:38;;;;;;;;;;;;;;;12.94;76.36;100459.63;20490670;28;19997;-59
2023/03/30 22:38:00;;;;;;;;;;;;;;;12.93;76.38;100448.41;20494294;28;19922;-58
2023/03/30 22:48:21;;;;;;;;;;;;;;;12.93;76.42;100460.53;20496202;28;19934;-59
2023/03/30 22:58:43;;;;;;;;;;;;;;;12.87;76.74;100455.66;20495456;28;19954;-58
2023/03/30 23:09:05;;;;;;;;;;;;;;;12.88;76.58;100447.78;20501210;28;19929;-59
2023/03/30 23:19:28;;;;;;;;;;;;;;;12.87;77.18;100427.91;20505751;28;19923;-59
2023/03/30 23:29:49;;;;;;;;;;;;;;;12.91;76.56;100419.06;20507998;28;20377;-59
2023/03/30 23:40:11;;;;;;;;;;;;;;;12.90;77.23;100412.19;20500295;28;20368;-59
2023/03/30 23:50:34;;;;;;;;;;;;;;;12.94;76.59;100408.53;20506453;28;20294;-59
